sensor_id;sensor_type;location;lat;lon;timestamp;pressure;altitude;pressure_sealevel;temperature;humidity
21821;BME280;11073;48.586;12.066;2023-07-20T00:00:25;96190.03;;;23.63;57.34
21821;BME280;11073;48.586;12.066;2023-07-20T00:03:09;96185.47;;;23.58;57.32
21821;BME280;11073;48.586;12.066;2023-07-20T00:05:39;96187.75;;;23.48;57.58
21821;BME280;11073;48.586;12.066;2023-07-20T00:08:08;96188.06;;;23.46;57.68
21821;BME280;11073;48.586;12.066;2023-07-20T00:10:37;96193.75;;;23.50;58.05
21821;BME280;11073;48.586;12.066;2023-07-20T00:13:07;96192.28;;;23.52;58.08
21821;BME280;11073;48.586;12.066;2023-07-20T00:15:36;96192.97;;;23.49;58.02
21821;BME280;11073;48.586;12.066;2023-07-20T00:18:05;96187.59;;;23.44;58.57
21821;BME280;11073;48.586;12.066;2023-07-20T00:20:34;96189.41;;;23.40;58.38
21821;BME280;11073;48.586;12.066;2023-07-20T00:23:03;96197.19;;;23.38;59.01
21821;BME280;11073;48.586;12.066;2023-07-20T00:25:32;96187.94;;;23.34;58.72
21821;BME280;11073;48.586;12.066;2023-07-20T00:28:01;96202.88;;;23.33;59.04
21821;BME280;11073;48.586;12.066;2023-07-20T00:30:32;96199.47;;;23.36;58.58
21821;BME280;11073;48.586;12.066;2023-07-20T00:33:01;96195.09;;;23.35;58.85
21821;BME280;11073;48.586;12.066;2023-07-20T00:35:30;96195.72;;;23.32;58.42
21821;BME280;11073;48.586;12.066;2023-07-20T00:37:59;96199.97;;;23.29;58.13
21821;BME280;11073;48.586;12.066;2023-07-20T00:40:28;96201.09;;;23.28;58.57
21821;BME280;11073;48.586;12.066;2023-07-20T00:42:57;96208.41;;;23.33;58.38
21821;BME280;11073;48.586;12.066;2023-07-20T00:45:26;96203.06;;;23.28;58.68
21821;BME280;11073;48.586;12.066;2023-07-20T00:47:57;96206.28;;;23.21;58.37
21821;BME280;11073;48.586;12.066;2023-07-20T00:50:26;96211.00;;;23.21;58.72
21821;BME280;11073;48.586;12.066;2023-07-20T00:52:56;96203.88;;;23.11;58.69
21821;BME280;11073;48.586;12.066;2023-07-20T00:55:26;96210.81;;;23.17;59.28
21821;BME280;11073;48.586;12.066;2023-07-20T00:57:55;96212.47;;;23.18;59.07
21821;BME280;11073;48.586;12.066;2023-07-20T01:00:24;96207.44;;;23.11;59.39
21821;BME280;11073;48.586;12.066;2023-07-20T01:02:53;96209.88;;;23.13;59.50
21821;BME280;11073;48.586;12.066;2023-07-20T01:05:27;96223.81;;;23.17;59.27
21821;BME280;11073;48.586;12.066;2023-07-20T01:08:07;96224.00;;;23.20;59.42
21821;BME280;11073;48.586;12.066;2023-07-20T01:10:44;96218.63;;;23.15;59.34
21821;BME280;11073;48.586;12.066;2023-07-20T01:13:15;96215.41;;;23.13;59.13
21821;BME280;11073;48.586;12.066;2023-07-20T01:15:49;96214.75;;;23.07;59.44
21821;BME280;11073;48.586;12.066;2023-07-20T01:18:18;96212.94;;;23.03;59.61
21821;BME280;11073;48.586;12.066;2023-07-20T01:20:48;96209.69;;;23.01;59.17
21821;BME280;11073;48.586;12.066;2023-07-20T01:23:28;96209.53;;;22.97;59.26
21821;BME280;11073;48.586;12.066;2023-07-20T01:26:12;96204.66;;;22.94;59.20
21821;BME280;11073;48.586;12.066;2023-07-20T01:29:35;96210.16;;;22.94;59.19
21821;BME280;11073;48.586;12.066;2023-07-20T01:32:10;96191.66;;;22.86;59.33
21821;BME280;11073;48.586;12.066;2023-07-20T01:34:40;96205.31;;;22.91;59.61
21821;BME280;11073;48.586;12.066;2023-07-20T01:37:10;96198.00;;;22.87;59.70
21821;BME280;11073;48.586;12.066;2023-07-20T01:39:39;96190.34;;;22.83;59.81
21821;BME280;11073;48.586;12.066;2023-07-20T01:42:09;96189.88;;;22.81;59.51
21821;BME280;11073;48.586;12.066;2023-07-20T01:44:38;96186.44;;;22.84;60.08
21821;BME280;11073;48.586;12.066;2023-07-20T01:47:07;96191.66;;;22.86;59.79
21821;BME280;11073;48.586;12.066;2023-07-20T01:49:37;96193.25;;;22.78;59.97
21821;BME280;11073;48.586;12.066;2023-07-20T01:52:06;96196.00;;;22.78;60.03
21821;BME280;11073;48.586;12.066;2023-07-20T01:54:35;96192.78;;;22.76;60.28
21821;BME280;11073;48.586;12.066;2023-07-20T01:57:05;96200.22;;;22.76;60.28
21821;BME280;11073;48.586;12.066;2023-07-20T01:59:33;96199.25;;;22.72;60.05
21821;BME280;11073;48.586;12.066;2023-07-20T02:02:03;96201.84;;;22.68;60.44
21821;BME280;11073;48.586;12.066;2023-07-20T02:04:32;96192.25;;;22.66;60.14
21821;BME280;11073;48.586;12.066;2023-07-20T02:07:02;96194.72;;;22.67;60.05
21821;BME280;11073;48.586;12.066;2023-07-20T02:09:31;96201.03;;;22.68;60.35
21821;BME280;11073;48.586;12.066;2023-07-20T02:12:00;96193.03;;;22.57;60.40
21821;BME280;11073;48.586;12.066;2023-07-20T02:14:29;96202.66;;;22.60;59.88
21821;BME280;11073;48.586;12.066;2023-07-20T02:16:57;96201.16;;;22.54;60.41
21821;BME280;11073;48.586;12.066;2023-07-20T02:19:30;96193.84;;;22.49;60.09
21821;BME280;11073;48.586;12.066;2023-07-20T02:21:58;96191.41;;;22.48;59.90
21821;BME280;11073;48.586;12.066;2023-07-20T02:24:29;96187.84;;;22.47;60.21
21821;BME280;11073;48.586;12.066;2023-07-20T02:26:57;96193.16;;;22.44;59.79
21821;BME280;11073;48.586;12.066;2023-07-20T02:29:26;96179.38;;;22.35;59.65
21821;BME280;11073;48.586;12.066;2023-07-20T02:31:55;96189.13;;;22.41;59.37
21821;BME280;11073;48.586;12.066;2023-07-20T02:34:25;96199.34;;;22.41;59.47
21821;BME280;11073;48.586;12.066;2023-07-20T02:36:54;96204.53;;;22.42;59.41
21821;BME280;11073;48.586;12.066;2023-07-20T02:39:24;96198.53;;;22.40;59.07
21821;BME280;11073;48.586;12.066;2023-07-20T02:41:54;96198.53;;;22.40;59.03
21821;BME280;11073;48.586;12.066;2023-07-20T02:44:23;96202.22;;;22.36;58.55
21821;BME280;11073;48.586;12.066;2023-07-20T02:46:52;96202.22;;;22.36;58.73
21821;BME280;11073;48.586;12.066;2023-07-20T02:49:21;96190.25;;;22.32;58.73
21821;BME280;11073;48.586;12.066;2023-07-20T02:51:50;96206.94;;;22.35;58.51
21821;BME280;11073;48.586;12.066;2023-07-20T02:54:18;96210.50;;;22.36;58.35
21821;BME280;11073;48.586;12.066;2023-07-20T02:56:48;96212.59;;;22.30;58.57
21821;BME280;11073;48.586;12.066;2023-07-20T02:59:18;96216.47;;;22.29;58.39
21821;BME280;11073;48.586;12.066;2023-07-20T03:01:47;96212.88;;;22.20;58.53
21821;BME280;11073;48.586;12.066;2023-07-20T03:04:16;96226.34;;;22.21;58.39
21821;BME280;11073;48.586;12.066;2023-07-20T03:06:45;96201.91;;;21.97;58.12
21821;BME280;11073;48.586;12.066;2023-07-20T03:09:14;96229.72;;;22.10;57.66
21821;BME280;11073;48.586;12.066;2023-07-20T03:11:43;96224.63;;;22.03;57.41
21821;BME280;11073;48.586;12.066;2023-07-20T03:14:12;96230.06;;;21.94;57.67
21821;BME280;11073;48.586;12.066;2023-07-20T03:16:42;96222.09;;;21.84;57.43
21821;BME280;11073;48.586;12.066;2023-07-20T03:19:13;96219.41;;;21.70;57.25
21821;BME280;11073;48.586;12.066;2023-07-20T03:21:42;96221.81;;;21.63;57.34
21821;BME280;11073;48.586;12.066;2023-07-20T03:24:11;96227.00;;;21.65;57.29
21821;BME280;11073;48.586;12.066;2023-07-20T03:26:40;96228.94;;;21.64;57.26
21821;BME280;11073;48.586;12.066;2023-07-20T03:29:09;96230.06;;;21.63;57.21
21821;BME280;11073;48.586;12.066;2023-07-20T03:31:38;96233.94;;;21.62;56.91
21821;BME280;11073;48.586;12.066;2023-07-20T03:34:09;96237.03;;;21.61;56.65
21821;BME280;11073;48.586;12.066;2023-07-20T03:36:41;96220.25;;;21.48;56.89
21821;BME280;11073;48.586;12.066;2023-07-20T03:39:12;96243.78;;;21.55;57.08
21821;BME280;11073;48.586;12.066;2023-07-20T03:41:40;96242.47;;;21.52;56.50
21821;BME280;11073;48.586;12.066;2023-07-20T03:44:10;96241.94;;;21.50;56.70
21821;BME280;11073;48.586;12.066;2023-07-20T03:46:39;96242.91;;;21.45;56.28
21821;BME280;11073;48.586;12.066;2023-07-20T03:49:10;96240.78;;;21.42;56.64
21821;BME280;11073;48.586;12.066;2023-07-20T03:51:38;96239.16;;;21.41;56.18
21821;BME280;11073;48.586;12.066;2023-07-20T03:54:07;96250.47;;;21.40;56.30
21821;BME280;11073;48.586;12.066;2023-07-20T03:56:36;96243.94;;;21.36;56.24
21821;BME280;11073;48.586;12.066;2023-07-20T03:59:05;96249.19;;;21.37;55.85
21821;BME280;11073;48.586;12.066;2023-07-20T04:01:34;96255.16;;;21.39;55.92
21821;BME280;11073;48.586;12.066;2023-07-20T04:04:06;96255.16;;;21.39;55.73
21821;BME280;11073;48.586;12.066;2023-07-20T04:06:37;96254.97;;;21.36;56.01
21821;BME280;11073;48.586;12.066;2023-07-20T04:09:06;96259.66;;;21.35;55.53
21821;BME280;11073;48.586;12.066;2023-07-20T04:11:35;96276.72;;;21.37;55.55
21821;BME280;11073;48.586;12.066;2023-07-20T04:14:03;96270.06;;;21.38;55.93
21821;BME280;11073;48.586;12.066;2023-07-20T04:16:32;96256.41;;;21.33;55.80
21821;BME280;11073;48.586;12.066;2023-07-20T04:19:01;96270.69;;;21.35;55.90
21821;BME280;11073;48.586;12.066;2023-07-20T04:21:30;96272.63;;;21.35;55.84
21821;BME280;11073;48.586;12.066;2023-07-20T04:24:01;96273.25;;;21.32;55.91
21821;BME280;11073;48.586;12.066;2023-07-20T04:26:30;96279.47;;;21.37;55.49
21821;BME280;11073;48.586;12.066;2023-07-20T04:28:59;96278.00;;;21.40;55.67
21821;BME280;11073;48.586;12.066;2023-07-20T04:31:34;96272.28;;;21.36;55.37
21821;BME280;11073;48.586;12.066;2023-07-20T04:34:03;96285.94;;;21.41;55.67
21821;BME280;11073;48.586;12.066;2023-07-20T04:36:34;96285.47;;;21.39;55.21
21821;BME280;11073;48.586;12.066;2023-07-20T04:39:06;96286.38;;;21.35;54.73
21821;BME280;11073;48.586;12.066;2023-07-20T04:41:53;96283.84;;;21.25;54.46
21821;BME280;11073;48.586;12.066;2023-07-20T04:44:22;96277.63;;;21.19;54.49
21821;BME280;11073;48.586;12.066;2023-07-20T04:46:52;96287.03;;;21.18;54.69
21821;BME280;11073;48.586;12.066;2023-07-20T04:49:20;96281.31;;;21.14;54.45
21821;BME280;11073;48.586;12.066;2023-07-20T04:51:50;96285.00;;;21.10;53.92
21821;BME280;11073;48.586;12.066;2023-07-20T04:54:21;96281.22;;;21.06;53.83
21821;BME280;11073;48.586;12.066;2023-07-20T04:56:50;96284.78;;;21.06;53.89
21821;BME280;11073;48.586;12.066;2023-07-20T04:59:20;96284.13;;;21.01;53.44
21821;BME280;11073;48.586;12.066;2023-07-20T05:01:49;96291.75;;;21.04;53.40
21821;BME280;11073;48.586;12.066;2023-07-20T05:04:18;96294.38;;;21.09;53.42
21821;BME280;11073;48.586;12.066;2023-07-20T05:06:49;96293.25;;;21.10;53.55
21821;BME280;11073;48.586;12.066;2023-07-20T05:09:18;96294.38;;;21.09;53.49
21821;BME280;11073;48.586;12.066;2023-07-20T05:11:49;96294.09;;;20.97;52.92
21821;BME280;11073;48.586;12.066;2023-07-20T05:14:18;96293.78;;;20.98;52.87
21821;BME280;11073;48.586;12.066;2023-07-20T05:16:49;96294.41;;;20.95;53.02
21821;BME280;11073;48.586;12.066;2023-07-20T05:19:18;96299.59;;;20.97;52.86
21821;BME280;11073;48.586;12.066;2023-07-20T05:21:47;96293.78;;;20.98;52.75
21821;BME280;11073;48.586;12.066;2023-07-20T05:24:16;96295.72;;;20.98;52.48
21821;BME280;11073;48.586;12.066;2023-07-20T05:26:45;96294.00;;;21.02;52.32
21821;BME280;11073;48.586;12.066;2023-07-20T05:29:15;96294.59;;;20.99;51.52
21821;BME280;11073;48.586;12.066;2023-07-20T05:31:44;96289.72;;;20.96;51.72
21821;BME280;11073;48.586;12.066;2023-07-20T05:34:13;96298.28;;;20.94;51.21
21821;BME280;11073;48.586;12.066;2023-07-20T05:36:42;96295.63;;;21.03;51.55
21821;BME280;11073;48.586;12.066;2023-07-20T05:39:10;96298.13;;;21.13;51.26
21821;BME280;11073;48.586;12.066;2023-07-20T05:41:39;96301.16;;;21.25;50.89
21821;BME280;11073;48.586;12.066;2023-07-20T05:44:08;96306.59;;;21.30;50.95
21821;BME280;11073;48.586;12.066;2023-07-20T05:46:39;96316.16;;;21.33;50.79
21821;BME280;11073;48.586;12.066;2023-07-20T05:49:23;96318.00;;;21.37;50.72
21821;BME280;11073;48.586;12.066;2023-07-20T05:51:51;96320.75;;;21.37;50.51
21821;BME280;11073;48.586;12.066;2023-07-20T05:54:20;96330.00;;;21.41;50.48
21821;BME280;11073;48.586;12.066;2023-07-20T05:56:49;96317.06;;;21.42;49.98
21821;BME280;11073;48.586;12.066;2023-07-20T05:59:18;96327.63;;;21.48;50.35
21821;BME280;11073;48.586;12.066;2023-07-20T06:01:48;96323.16;;;21.53;50.02
21821;BME280;11073;48.586;12.066;2023-07-20T06:04:17;96318.31;;;21.58;49.61
21821;BME280;11073;48.586;12.066;2023-07-20T06:06:46;96320.41;;;21.53;49.69
21821;BME280;11073;48.586;12.066;2023-07-20T06:09:15;96327.41;;;21.59;49.41
21821;BME280;11073;48.586;12.066;2023-07-20T06:11:44;96327.09;;;21.60;49.00
21821;BME280;11073;48.586;12.066;2023-07-20T06:14:13;96334.94;;;21.67;49.18
21821;BME280;11073;48.586;12.066;2023-07-20T06:16:42;96333.47;;;21.69;49.06
21821;BME280;11073;48.586;12.066;2023-07-20T06:19:13;96332.03;;;21.72;48.91
21821;BME280;11073;48.586;12.066;2023-07-20T06:21:42;96336.44;;;21.73;48.79
21821;BME280;11073;48.586;12.066;2023-07-20T06:24:11;96333.00;;;21.67;48.29
21821;BME280;11073;48.586;12.066;2023-07-20T06:26:39;96335.69;;;21.59;48.14
21821;BME280;11073;48.586;12.066;2023-07-20T06:29:09;96331.78;;;21.60;47.99
21821;BME280;11073;48.586;12.066;2023-07-20T06:31:37;96326.78;;;21.62;47.78
21821;BME280;11073;48.586;12.066;2023-07-20T06:34:06;96335.78;;;21.54;47.56
21821;BME280;11073;48.586;12.066;2023-07-20T06:36:37;96336.09;;;21.52;47.61
21821;BME280;11073;48.586;12.066;2023-07-20T06:39:06;96331.66;;;21.65;47.72
21821;BME280;11073;48.586;12.066;2023-07-20T06:41:38;96343.19;;;21.67;47.54
21821;BME280;11073;48.586;12.066;2023-07-20T06:44:11;96329.00;;;21.73;47.78
21821;BME280;11073;48.586;12.066;2023-07-20T06:46:40;96327.41;;;21.81;47.79
21821;BME280;11073;48.586;12.066;2023-07-20T06:51:40;96327.53;;;21.98;47.46
21821;BME280;11073;48.586;12.066;2023-07-20T06:54:09;96333.09;;;22.07;47.40
21821;BME280;11073;48.586;12.066;2023-07-20T06:56:38;96331.25;;;22.16;47.52
21821;BME280;11073;48.586;12.066;2023-07-20T06:59:12;96323.81;;;22.17;47.15
21821;BME280;11073;48.586;12.066;2023-07-20T07:01:41;96332.81;;;22.09;47.25
21821;BME280;11073;48.586;12.066;2023-07-20T07:04:10;96324.13;;;22.01;47.27
21821;BME280;11073;48.586;12.066;2023-07-20T07:06:41;96327.09;;;22.05;47.13
21821;BME280;11073;48.586;12.066;2023-07-20T07:09:10;96331.38;;;22.11;47.31
21821;BME280;11073;48.586;12.066;2023-07-20T07:11:39;96327.38;;;22.17;47.07
21821;BME280;11073;48.586;12.066;2023-07-20T07:14:08;96334.47;;;22.10;46.50
21821;BME280;11073;48.586;12.066;2023-07-20T07:16:36;96332.50;;;22.10;46.33
21821;BME280;11073;48.586;12.066;2023-07-20T07:19:06;96337.75;;;22.20;46.60
21821;BME280;11073;48.586;12.066;2023-07-20T07:21:35;96344.28;;;22.24;46.34
21821;BME280;11073;48.586;12.066;2023-07-20T07:24:06;96338.06;;;22.19;46.47
21821;BME280;11073;48.586;12.066;2023-07-20T07:26:37;96334.00;;;22.16;46.34
21821;BME280;11073;48.586;12.066;2023-07-20T07:29:06;96338.56;;;22.21;46.34
21821;BME280;11073;48.586;12.066;2023-07-20T07:31:35;96339.69;;;22.20;45.87
21821;BME280;11073;48.586;12.066;2023-07-20T07:34:04;96337.75;;;22.20;46.40
21821;BME280;11073;48.586;12.066;2023-07-20T07:36:32;96348.97;;;22.24;46.05
21821;BME280;11073;48.586;12.066;2023-07-20T07:39:01;96346.34;;;22.19;46.26
21821;BME280;11073;48.586;12.066;2023-07-20T07:41:51;96354.34;;;22.29;46.43
21821;BME280;11073;48.586;12.066;2023-07-20T07:44:19;96360.91;;;22.42;46.14
21821;BME280;11073;48.586;12.066;2023-07-20T07:46:48;96350.56;;;22.47;45.85
21821;BME280;11073;48.586;12.066;2023-07-20T07:49:17;96354.00;;;22.53;46.06
21821;BME280;11073;48.586;12.066;2023-07-20T07:51:46;96363.69;;;22.50;45.42
21821;BME280;11073;48.586;12.066;2023-07-20T07:54:15;96363.22;;;22.48;45.59
21821;BME280;11073;48.586;12.066;2023-07-20T07:56:44;96357.06;;;22.51;45.45
21821;BME280;11073;48.586;12.066;2023-07-20T07:59:14;96360.84;;;22.64;45.30
21821;BME280;11073;48.586;12.066;2023-07-20T08:01:43;96354.22;;;22.74;45.37
21821;BME280;11073;48.586;12.066;2023-07-20T08:04:12;96364.06;;;22.89;44.94
21821;BME280;11073;48.586;12.066;2023-07-20T08:06:41;96360.81;;;22.95;45.08
21821;BME280;11073;48.586;12.066;2023-07-20T08:09:10;96351.94;;;22.98;44.72
21821;BME280;11073;48.586;12.066;2023-07-20T08:11:39;96359.09;;;23.08;44.64
21821;BME280;11073;48.586;12.066;2023-07-20T08:14:08;96351.63;;;23.17;44.15
21821;BME280;11073;48.586;12.066;2023-07-20T08:16:38;96352.97;;;23.28;44.22
21821;BME280;11073;48.586;12.066;2023-07-20T08:19:07;96354.75;;;23.24;43.71
21821;BME280;11073;48.586;12.066;2023-07-20T08:21:36;96348.59;;;23.36;43.97
21821;BME280;11073;48.586;12.066;2023-07-20T08:24:05;96354.13;;;23.53;43.97
21821;BME280;11073;48.586;12.066;2023-07-20T08:26:35;96355.94;;;23.49;43.52
21821;BME280;11073;48.586;12.066;2023-07-20T08:29:03;96361.13;;;23.42;43.46
21821;BME280;11073;48.586;12.066;2023-07-20T08:31:32;96355.13;;;23.40;42.95
21821;BME280;11073;48.586;12.066;2023-07-20T08:34:02;96354.94;;;23.36;42.58
21821;BME280;11073;48.586;12.066;2023-07-20T08:36:51;96347.31;;;23.42;42.62
21821;BME280;11073;48.586;12.066;2023-07-20T08:39:20;96347.50;;;23.54;42.02
21821;BME280;11073;48.586;12.066;2023-07-20T08:41:49;96355.16;;;23.75;41.76
21821;BME280;11073;48.586;12.066;2023-07-20T08:44:19;96351.56;;;23.74;41.50
21821;BME280;11073;48.586;12.066;2023-07-20T08:46:48;96350.28;;;23.72;41.37
21821;BME280;11073;48.586;12.066;2023-07-20T08:49:18;96347.19;;;23.73;40.89
21821;BME280;11073;48.586;12.066;2023-07-20T08:51:48;96346.22;;;23.86;40.67
21821;BME280;11073;48.586;12.066;2023-07-20T08:54:17;96333.38;;;23.82;40.59
21821;BME280;11073;48.586;12.066;2023-07-20T08:56:46;96348.00;;;24.00;40.40
21821;BME280;11073;48.586;12.066;2023-07-20T08:59:17;96341.00;;;24.02;39.48
21821;BME280;11073;48.586;12.066;2023-07-20T09:01:46;96347.00;;;24.21;39.56
21821;BME280;11073;48.586;12.066;2023-07-20T09:04:15;96339.34;;;24.27;38.90
21821;BME280;11073;48.586;12.066;2023-07-20T09:06:46;96348.59;;;24.40;38.90
21821;BME280;11073;48.586;12.066;2023-07-20T09:09:15;96350.88;;;24.38;38.92
21821;BME280;11073;48.586;12.066;2023-07-20T09:11:47;96342.88;;;24.45;38.84
21821;BME280;11073;48.586;12.066;2023-07-20T09:14:16;96339.44;;;24.48;38.74
21821;BME280;11073;48.586;12.066;2023-07-20T09:16:47;96351.59;;;24.73;38.37
21821;BME280;11073;48.586;12.066;2023-07-20T09:19:17;96345.56;;;24.71;38.06
21821;BME280;11073;48.586;12.066;2023-07-20T09:21:48;96356.38;;;24.93;37.51
21821;BME280;11073;48.586;12.066;2023-07-20T09:24:18;96346.41;;;25.01;37.33
21821;BME280;11073;48.586;12.066;2023-07-20T09:26:48;96350.16;;;24.96;36.69
21821;BME280;11073;48.586;12.066;2023-07-20T09:29:18;96344.03;;;25.20;36.40
21821;BME280;11073;48.586;12.066;2023-07-20T09:31:59;96339.94;;;25.26;36.33
21821;BME280;11073;48.586;12.066;2023-07-20T09:34:29;96337.66;;;25.49;36.14
21821;BME280;11073;48.586;12.066;2023-07-20T09:37:03;96340.78;;;25.48;36.03
21821;BME280;11073;48.586;12.066;2023-07-20T09:39:42;96337.63;;;25.58;35.99
21821;BME280;11073;48.586;12.066;2023-07-20T09:42:31;96345.38;;;25.85;35.89
21821;BME280;11073;48.586;12.066;2023-07-20T09:45:01;96345.84;;;25.67;35.66
21821;BME280;11073;48.586;12.066;2023-07-20T09:47:30;96339.47;;;25.75;35.46
21821;BME280;11073;48.586;12.066;2023-07-20T09:50:00;96347.03;;;25.87;35.24
21821;BME280;11073;48.586;12.066;2023-07-20T09:52:35;96355.19;;;26.04;35.36
21821;BME280;11073;48.586;12.066;2023-07-20T09:55:08;96345.25;;;26.03;35.16
21821;BME280;11073;48.586;12.066;2023-07-20T09:57:37;96343.09;;;26.42;34.66
21821;BME280;11073;48.586;12.066;2023-07-20T10:00:07;96344.31;;;26.77;34.55
21821;BME280;11073;48.586;12.066;2023-07-20T10:02:45;96355.59;;;27.05;33.84
21821;BME280;11073;48.586;12.066;2023-07-20T10:05:15;96343.56;;;27.38;33.40
21821;BME280;11073;48.586;12.066;2023-07-20T10:07:48;96355.69;;;27.09;32.87
21821;BME280;11073;48.586;12.066;2023-07-20T10:10:19;96340.19;;;26.96;32.80
21821;BME280;11073;48.586;12.066;2023-07-20T10:12:49;96334.16;;;27.30;33.02
21821;BME280;11073;48.586;12.066;2023-07-20T10:15:24;96333.44;;;27.58;32.73
21821;BME280;11073;48.586;12.066;2023-07-20T10:17:59;96344.19;;;27.71;32.48
21821;BME280;11073;48.586;12.066;2023-07-20T10:20:31;96337.28;;;27.53;32.26
21821;BME280;11073;48.586;12.066;2023-07-20T10:23:04;96334.88;;;27.15;32.18
21821;BME280;11073;48.586;12.066;2023-07-20T10:25:33;96340.66;;;26.98;32.17
21821;BME280;11073;48.586;12.066;2023-07-20T10:28:05;96332.88;;;26.66;32.75
21821;BME280;11073;48.586;12.066;2023-07-20T10:30:35;96336.66;;;26.62;32.73
21821;BME280;11073;48.586;12.066;2023-07-20T10:33:05;96337.38;;;26.59;33.03
21821;BME280;11073;48.586;12.066;2023-07-20T10:35:50;96333.69;;;26.67;32.89
21821;BME280;11073;48.586;12.066;2023-07-20T10:38:38;96346.56;;;26.96;32.90
21821;BME280;11073;48.586;12.066;2023-07-20T10:41:17;96338.09;;;26.80;32.66
21821;BME280;11073;48.586;12.066;2023-07-20T10:43:48;96336.44;;;26.55;32.17
21821;BME280;11073;48.586;12.066;2023-07-20T10:46:42;96337.78;;;26.49;32.69
21821;BME280;11073;48.586;12.066;2023-07-20T10:49:13;96333.56;;;26.30;32.51
21821;BME280;11073;48.586;12.066;2023-07-20T10:51:45;96329.69;;;26.10;32.99
21821;BME280;11073;48.586;12.066;2023-07-20T10:54:35;96326.63;;;26.24;33.18
21821;BME280;11073;48.586;12.066;2023-07-20T10:57:22;96328.25;;;26.58;33.29
21821;BME280;11073;48.586;12.066;2023-07-20T10:59:51;96316.69;;;27.30;33.15
21821;BME280;11073;48.586;12.066;2023-07-20T11:02:20;96331.50;;;27.98;32.93
21821;BME280;11073;48.586;12.066;2023-07-20T11:04:49;96313.34;;;27.89;31.86
21821;BME280;11073;48.586;12.066;2023-07-20T11:07:36;96316.13;;;27.89;31.95
21821;BME280;11073;48.586;12.066;2023-07-20T11:10:16;96332.00;;;28.16;31.70
21821;BME280;11073;48.586;12.066;2023-07-20T11:13:17;96331.28;;;27.91;31.65
21821;BME280;11073;48.586;12.066;2023-07-20T11:15:46;96325.34;;;28.33;31.49
21821;BME280;11073;48.586;12.066;2023-07-20T11:18:15;96326.09;;;28.62;31.27
21821;BME280;11073;48.586;12.066;2023-07-20T11:20:50;96331.31;;;28.63;30.60
21821;BME280;11073;48.586;12.066;2023-07-20T11:23:20;96326.53;;;28.48;30.81
21821;BME280;11073;48.586;12.066;2023-07-20T11:25:50;96331.38;;;28.67;30.85
21821;BME280;11073;48.586;12.066;2023-07-20T11:28:19;96322.34;;;28.85;30.57
21821;BME280;11073;48.586;12.066;2023-07-20T11:30:51;96324.66;;;28.24;30.51
21821;BME280;11073;48.586;12.066;2023-07-20T11:33:22;96308.13;;;28.15;30.66
21821;BME280;11073;48.586;12.066;2023-07-20T11:35:51;96310.97;;;28.31;30.84
21821;BME280;11073;48.586;12.066;2023-07-20T11:38:20;96299.50;;;28.20;30.79
21821;BME280;11073;48.586;12.066;2023-07-20T11:40:50;96307.81;;;28.05;30.96
21821;BME280;11073;48.586;12.066;2023-07-20T11:43:19;96303.66;;;28.54;31.12
21821;BME280;11073;48.586;12.066;2023-07-20T11:45:50;96317.47;;;28.82;30.88
21821;BME280;11073;48.586;12.066;2023-07-20T11:48:19;96299.50;;;29.11;30.75
21821;BME280;11073;48.586;12.066;2023-07-20T11:50:49;96294.19;;;29.22;29.97
21821;BME280;11073;48.586;12.066;2023-07-20T11:53:18;96286.53;;;29.35;30.27
21821;BME280;11073;48.586;12.066;2023-07-20T11:55:47;96291.28;;;29.50;29.83
21821;BME280;11073;48.586;12.066;2023-07-20T11:58:18;96292.13;;;29.70;29.43
21821;BME280;11073;48.586;12.066;2023-07-20T12:00:47;96288.16;;;30.10;29.34
21821;BME280;11073;48.586;12.066;2023-07-20T12:03:17;96285.84;;;30.35;29.30
21821;BME280;11073;48.586;12.066;2023-07-20T12:05:46;96272.13;;;30.49;28.82
21821;BME280;11073;48.586;12.066;2023-07-20T12:08:28;96275.19;;;30.63;28.25
21821;BME280;11073;48.586;12.066;2023-07-20T12:10:57;96267.59;;;30.41;28.19
21821;BME280;11073;48.586;12.066;2023-07-20T12:13:37;96260.78;;;30.61;28.47
21821;BME280;11073;48.586;12.066;2023-07-20T12:16:10;96268.84;;;30.20;28.12
21821;BME280;11073;48.586;12.066;2023-07-20T12:18:41;96261.94;;;29.76;28.42
21821;BME280;11073;48.586;12.066;2023-07-20T12:21:10;96260.91;;;30.03;28.46
21821;BME280;11073;48.586;12.066;2023-07-20T12:23:40;96259.38;;;29.67;28.41
21821;BME280;11073;48.586;12.066;2023-07-20T12:26:10;96253.78;;;29.32;28.82
21821;BME280;11073;48.586;12.066;2023-07-20T12:28:41;96255.22;;;29.06;29.08
21821;BME280;11073;48.586;12.066;2023-07-20T12:31:10;96249.13;;;29.01;29.08
21821;BME280;11073;48.586;12.066;2023-07-20T12:33:41;96251.47;;;28.99;29.32
21821;BME280;11073;48.586;12.066;2023-07-20T12:36:10;96251.91;;;29.36;29.33
21821;BME280;11073;48.586;12.066;2023-07-20T12:38:39;96259.00;;;29.69;29.28
21821;BME280;11073;48.586;12.066;2023-07-20T12:41:10;96250.34;;;29.93;28.77
21821;BME280;11073;48.586;12.066;2023-07-20T12:43:43;96246.53;;;29.82;28.71
21821;BME280;11073;48.586;12.066;2023-07-20T12:46:13;96231.69;;;29.58;28.80
21821;BME280;11073;48.586;12.066;2023-07-20T12:48:42;96242.25;;;29.49;29.10
21821;BME280;11073;48.586;12.066;2023-07-20T12:51:14;96244.09;;;29.26;29.14
21821;BME280;11073;48.586;12.066;2023-07-20T12:53:44;96246.28;;;29.17;29.06
21821;BME280;11073;48.586;12.066;2023-07-20T12:56:12;96243.38;;;28.78;29.02
21821;BME280;11073;48.586;12.066;2023-07-20T12:58:46;96236.84;;;28.54;29.23
21821;BME280;11073;48.586;12.066;2023-07-20T13:01:17;96238.25;;;28.48;29.22
21821;BME280;11073;48.586;12.066;2023-07-20T13:03:46;96243.81;;;28.80;29.03
21821;BME280;11073;48.586;12.066;2023-07-20T13:06:18;96240.03;;;28.72;28.99
21821;BME280;11073;48.586;12.066;2023-07-20T13:08:50;96238.81;;;28.70;29.22
21821;BME280;11073;48.586;12.066;2023-07-20T13:11:23;96238.53;;;28.59;29.24